createdAt,value
2019-03-26T00:00:34.196Z,2.99
2019-03-26T00:01:34.175Z,2.97
2019-03-26T00:02:34.297Z,3.10
2019-03-26T00:03:34.186Z,3.12
2019-03-26T00:04:34.177Z,3.04
2019-03-26T00:05:34.137Z,3.10
2019-03-26T00:06:34.117Z,2.97
2019-03-26T00:07:34.098Z,2.99
2019-03-26T00:08:34.199Z,3.05
2019-03-26T00:09:34.080Z,3.17
2019-03-26T00:10:34.090Z,3.12
2019-03-26T00:11:34.060Z,3.15
2019-03-26T00:12:34.052Z,3.12
2019-03-26T00:13:35.208Z,3.16
2019-03-26T00:14:34.051Z,3.25
2019-03-26T00:15:35.051Z,3.26
2019-03-26T00:16:34.188Z,3.20
2019-03-26T00:17:33.998Z,3.26
2019-03-26T00:18:34.003Z,3.25
2019-03-26T00:19:34.003Z,3.23
2019-03-26T00:20:33.955Z,3.26
2019-03-26T00:21:34.965Z,3.25
2019-03-26T00:22:33.935Z,3.19
2019-03-26T00:23:33.937Z,3.25
2019-03-26T00:24:34.965Z,3.26
2019-03-26T00:25:33.897Z,3.17
2019-03-26T00:26:33.977Z,3.22
2019-03-26T00:27:33.877Z,3.16
2019-03-26T00:28:33.878Z,3.13
2019-03-26T00:29:33.848Z,3.12
2019-03-26T00:30:34.868Z,3.20
2019-03-26T00:31:33.831Z,3.22
2019-03-26T00:32:33.893Z,3.25
2019-03-26T00:33:36.595Z,3.28
2019-03-26T00:34:33.834Z,3.33
2019-03-26T00:35:33.790Z,3.39
2019-03-26T00:36:33.861Z,3.39
2019-03-26T00:37:33.764Z,3.44
2019-03-26T00:38:33.912Z,3.37
2019-03-26T00:39:33.772Z,3.46
2019-03-26T00:40:33.724Z,3.45
2019-03-26T00:41:34.860Z,3.54
2019-03-26T00:42:33.703Z,3.52
2019-03-26T00:43:33.774Z,3.45
2019-03-26T00:44:33.698Z,3.42
2019-03-26T00:45:33.675Z,3.44
2019-03-26T00:46:33.740Z,3.50
2019-03-26T00:47:33.645Z,3.46
2019-03-26T00:48:33.706Z,3.39
2019-03-26T00:49:33.693Z,3.49
2019-03-26T00:50:34.739Z,3.56
2019-03-26T00:51:33.607Z,3.56
2019-03-26T00:52:34.667Z,3.62
2019-03-26T00:53:33.607Z,3.59
2019-03-26T00:54:33.688Z,3.60
2019-03-26T00:55:33.569Z,3.57
2019-03-26T00:56:35.670Z,3.63
2019-03-26T00:57:33.540Z,3.60
2019-03-26T00:58:33.610Z,3.63
2019-03-26T00:59:33.522Z,3.62
2019-03-26T01:00:33.501Z,3.63
2019-03-26T01:01:34.581Z,3.64
2019-03-26T01:02:33.471Z,3.67
2019-03-26T01:03:33.533Z,3.59
2019-03-26T01:04:33.546Z,3.70
2019-03-26T01:05:34.554Z,3.64
2019-03-26T01:06:33.440Z,3.67
2019-03-26T01:07:34.494Z,3.63
2019-03-26T01:08:33.425Z,3.63
2019-03-26T01:09:34.490Z,3.67
2019-03-26T01:10:33.386Z,3.72
2019-03-26T01:11:33.386Z,3.75
2019-03-26T01:12:33.377Z,3.77
2019-03-26T01:13:35.477Z,3.67
2019-03-26T01:14:33.342Z,3.80
2019-03-26T01:15:33.418Z,3.68
2019-03-26T01:16:33.328Z,3.70
2019-03-26T01:17:33.348Z,3.63
2019-03-26T01:18:33.309Z,3.63
2019-03-26T01:19:34.299Z,3.63
2019-03-26T01:20:33.273Z,3.60
2019-03-26T01:21:33.321Z,3.57
2019-03-26T01:22:34.311Z,3.63
2019-03-26T01:23:33.272Z,3.63
2019-03-26T01:24:33.321Z,3.64
2019-03-26T01:25:33.212Z,3.62
2019-03-26T01:26:33.262Z,3.62
2019-03-26T01:27:33.193Z,3.62
2019-03-26T01:28:33.303Z,3.59
2019-03-26T01:29:33.184Z,3.54
2019-03-26T01:30:33.234Z,3.62
2019-03-26T01:31:33.154Z,3.59
2019-03-26T01:32:33.175Z,3.63
2019-03-26T01:33:33.135Z,3.59
2019-03-26T01:34:45.492Z,3.63
2019-03-26T01:35:34.108Z,3.63
2019-03-26T01:36:33.148Z,3.63
2019-03-26T01:37:33.093Z,3.62
2019-03-26T01:38:33.073Z,3.68
2019-03-26T01:39:35.128Z,3.63
2019-03-26T01:40:33.048Z,3.70
2019-03-26T01:41:33.083Z,3.81
2019-03-26T01:42:33.029Z,3.89
2019-03-26T01:43:33.010Z,3.84
2019-03-26T01:44:33.013Z,3.84
2019-03-26T01:45:33.050Z,3.80
2019-03-26T01:46:32.971Z,3.80
2019-03-26T01:47:34.012Z,3.86
2019-03-26T01:48:32.953Z,3.80
2019-03-26T01:49:33.992Z,3.88
2019-03-26T01:50:32.932Z,3.80
2019-03-26T01:51:33.010Z,3.92
2019-03-26T01:52:32.913Z,3.93
2019-03-26T01:53:32.994Z,3.93
2019-03-26T01:54:32.895Z,3.90
2019-03-26T01:55:32.935Z,3.98
2019-03-26T01:56:32.875Z,3.96
2019-03-26T01:57:32.867Z,3.99
2019-03-26T01:58:32.836Z,3.90
2019-03-26T01:59:32.836Z,3.95
2019-03-26T02:00:32.827Z,3.96
2019-03-26T02:01:32.837Z,3.96
2019-03-26T02:02:32.797Z,4.02
2019-03-26T02:03:32.879Z,3.90
2019-03-26T02:04:32.790Z,3.96
2019-03-26T02:05:32.759Z,3.92
2019-03-26T02:06:32.751Z,3.95
2019-03-26T02:07:32.850Z,3.95
2019-03-26T02:08:32.720Z,4.10
2019-03-26T02:09:32.831Z,3.98
2019-03-26T02:10:32.750Z,3.99
2019-03-26T02:11:32.703Z,4.13
2019-03-26T02:12:33.711Z,3.98
2019-03-26T02:13:32.682Z,4.00
2019-03-26T02:14:32.772Z,4.06
2019-03-26T02:15:32.653Z,4.08
2019-03-26T02:16:32.664Z,4.02
2019-03-26T02:17:32.623Z,4.02
2019-03-26T02:18:34.634Z,3.96
2019-03-26T02:19:32.617Z,4.14
2019-03-26T02:20:32.625Z,4.04
2019-03-26T02:21:32.593Z,4.08
2019-03-26T02:22:32.666Z,4.10
2019-03-26T02:23:32.546Z,4.04
2019-03-26T02:24:32.646Z,4.02
2019-03-26T02:25:32.533Z,4.07
2019-03-26T02:26:32.578Z,4.00
2019-03-26T02:27:32.509Z,4.10
2019-03-26T02:28:32.578Z,4.00
2019-03-26T02:29:32.510Z,4.06
2019-03-26T02:30:32.509Z,4.04
2019-03-26T02:31:32.475Z,4.07
2019-03-26T02:32:33.472Z,4.06
2019-03-26T02:33:32.451Z,4.04
2019-03-26T02:34:33.561Z,4.06
2019-03-26T02:35:32.431Z,4.10
2019-03-26T02:36:33.442Z,4.06
2019-03-26T02:37:32.392Z,4.06
2019-03-26T02:38:32.453Z,4.06
2019-03-26T02:39:32.395Z,4.06
2019-03-26T02:40:32.394Z,4.07
2019-03-26T02:41:32.354Z,4.10
2019-03-26T02:42:32.335Z,4.11
2019-03-26T02:43:32.395Z,4.04
2019-03-26T02:44:32.330Z,4.08
2019-03-26T02:45:32.326Z,4.08
2019-03-26T02:46:32.306Z,4.11
2019-03-26T02:47:32.272Z,4.06
2019-03-26T02:48:32.281Z,4.08
2019-03-26T02:49:32.358Z,4.07
2019-03-26T02:50:32.259Z,4.07
2019-03-26T02:51:34.288Z,4.06
2019-03-26T02:52:32.229Z,4.11
2019-03-26T02:53:33.305Z,4.07
2019-03-26T02:54:32.230Z,4.08
2019-03-26T02:55:33.239Z,4.17
2019-03-26T02:56:32.193Z,4.10
2019-03-26T02:57:32.240Z,4.04
2019-03-26T02:58:32.151Z,4.04
2019-03-26T02:59:32.226Z,4.06
2019-03-26T03:00:32.133Z,4.08
2019-03-26T03:01:32.213Z,4.07
2019-03-26T03:02:32.112Z,4.18
2019-03-26T03:03:32.116Z,4.14
2019-03-26T03:04:32.106Z,4.08
2019-03-26T03:05:35.758Z,4.08
2019-03-26T03:06:32.076Z,4.02
2019-03-26T03:07:32.125Z,4.14
2019-03-26T03:08:32.095Z,4.10
2019-03-26T03:09:32.058Z,4.07
2019-03-26T03:10:33.058Z,4.16
2019-03-26T03:11:32.017Z,4.04
2019-03-26T03:12:32.068Z,4.07
2019-03-26T03:13:31.998Z,4.07
2019-03-26T03:14:32.040Z,4.07
2019-03-26T03:15:31.959Z,4.04
2019-03-26T03:16:33.988Z,4.06
2019-03-26T03:17:31.940Z,3.93
2019-03-26T03:18:32.999Z,4.13
2019-03-26T03:19:31.930Z,4.02
2019-03-26T03:20:32.942Z,4.08
2019-03-26T03:21:31.898Z,4.06
2019-03-26T03:22:31.944Z,4.08
2019-03-26T03:23:31.874Z,4.11
2019-03-26T03:24:32.843Z,4.07
2019-03-26T03:25:31.852Z,4.10
2019-03-26T03:26:31.913Z,4.08
2019-03-26T03:27:31.834Z,4.07
2019-03-26T03:28:31.853Z,4.04
2019-03-26T03:29:31.814Z,4.02
2019-03-26T03:30:31.815Z,4.06
2019-03-26T03:31:31.855Z,4.00
2019-03-26T03:32:31.777Z,4.11
2019-03-26T03:33:32.816Z,4.14
2019-03-26T03:34:31.747Z,4.10
2019-03-26T03:35:31.747Z,4.10
2019-03-26T03:36:31.788Z,4.08
2019-03-26T03:37:31.729Z,4.13
2019-03-26T03:38:32.748Z,4.08
2019-03-26T03:39:31.688Z,4.08
2019-03-26T03:40:31.688Z,4.04
2019-03-26T03:41:31.670Z,4.08
2019-03-26T03:42:31.700Z,4.07
2019-03-26T03:43:31.640Z,4.14
2019-03-26T03:44:31.741Z,4.10
2019-03-26T03:45:31.763Z,4.00
2019-03-26T03:46:31.622Z,4.02
2019-03-26T03:47:31.643Z,4.02
2019-03-26T03:48:31.603Z,3.99
2019-03-26T03:49:32.608Z,3.96
2019-03-26T03:50:31.583Z,4.02
2019-03-26T03:51:31.564Z,3.92
2019-03-26T03:52:32.618Z,3.99
2019-03-26T03:53:31.535Z,3.98
2019-03-26T03:54:32.535Z,4.02
2019-03-26T03:55:31.538Z,4.02
2019-03-26T03:56:31.495Z,3.96
2019-03-26T03:57:31.485Z,3.93
2019-03-26T03:58:38.446Z,3.98
2019-03-26T03:59:31.469Z,4.04
2019-03-26T04:00:31.569Z,3.95
2019-03-26T04:01:33.549Z,4.02
2019-03-26T04:02:31.428Z,3.96
2019-03-26T04:03:32.459Z,3.95
2019-03-26T04:04:31.419Z,4.04
2019-03-26T04:05:31.520Z,4.06
2019-03-26T04:06:31.400Z,4.07
2019-03-26T04:07:31.380Z,3.95
2019-03-26T04:08:31.470Z,3.99
2019-03-26T04:09:31.362Z,4.02
2019-03-26T04:10:31.463Z,3.98
2019-03-26T04:11:31.343Z,3.96
2019-03-26T04:12:31.323Z,3.93
2019-03-26T04:13:31.303Z,3.96
2019-03-26T04:14:31.373Z,3.98
2019-03-26T04:15:34.918Z,3.96
2019-03-26T04:16:31.404Z,4.08
2019-03-26T04:17:31.263Z,4.06
2019-03-26T04:18:31.256Z,4.10
2019-03-26T04:19:31.325Z,4.06
2019-03-26T04:20:31.246Z,4.00
2019-03-26T04:21:32.275Z,4.10
2019-03-26T04:22:31.206Z,4.04
2019-03-26T04:23:31.207Z,4.08
2019-03-26T04:24:31.182Z,3.93
2019-03-26T04:25:31.278Z,4.07
2019-03-26T04:26:31.168Z,4.00
2019-03-26T04:27:31.272Z,3.98
2019-03-26T04:28:31.229Z,4.04
2019-03-26T04:29:31.140Z,3.93
2019-03-26T04:30:31.220Z,3.92
2019-03-26T04:31:31.100Z,4.04
2019-03-26T04:32:31.201Z,3.95
2019-03-26T04:33:31.081Z,3.98
2019-03-26T04:34:31.071Z,4.00
2019-03-26T04:35:31.160Z,4.07
2019-03-26T04:36:31.042Z,4.02
2019-03-26T04:37:33.083Z,3.99
2019-03-26T04:38:31.024Z,3.92
2019-03-26T04:39:31.073Z,3.99
2019-03-26T04:40:31.013Z,3.95
2019-03-26T04:41:31.015Z,4.00
2019-03-26T04:42:30.987Z,3.93
2019-03-26T04:43:31.057Z,4.04
2019-03-26T04:44:30.962Z,3.95
2019-03-26T04:45:32.976Z,4.07
2019-03-26T04:46:30.946Z,4.06
2019-03-26T04:47:31.949Z,3.98
2019-03-26T04:48:30.917Z,3.98
2019-03-26T04:49:37.499Z,4.00
2019-03-26T04:50:30.907Z,4.00
2019-03-26T04:51:30.991Z,3.93
2019-03-26T04:52:30.860Z,3.99
2019-03-26T04:53:34.045Z,4.04
2019-03-26T04:54:30.842Z,4.00
2019-03-26T04:55:30.830Z,3.95
2019-03-26T04:56:30.930Z,3.95
2019-03-26T04:57:30.811Z,4.06
2019-03-26T04:58:31.891Z,4.10
2019-03-26T04:59:30.786Z,4.02
2019-03-26T05:00:30.785Z,4.11
2019-03-26T05:01:30.773Z,4.08
2019-03-26T05:02:30.844Z,4.06
2019-03-26T05:03:30.748Z,4.10
2019-03-26T05:04:30.774Z,4.11
2019-03-26T05:05:30.751Z,4.07
2019-03-26T05:06:37.772Z,4.10
2019-03-26T05:07:31.807Z,4.07
2019-03-26T05:08:30.695Z,4.07
2019-03-26T05:09:31.745Z,4.08
2019-03-26T05:10:30.677Z,4.17
2019-03-26T05:11:30.646Z,4.06
2019-03-26T05:12:30.737Z,4.07
2019-03-26T05:13:30.628Z,4.11
2019-03-26T05:14:31.678Z,4.11
2019-03-26T05:15:30.618Z,4.13
2019-03-26T05:16:31.612Z,4.11
2019-03-26T05:17:30.569Z,4.11
2019-03-26T05:18:31.650Z,4.11
2019-03-26T05:19:30.560Z,4.10
2019-03-26T05:20:31.632Z,4.04
2019-03-26T05:21:30.541Z,4.11
2019-03-26T05:22:30.521Z,4.20
2019-03-26T05:23:31.592Z,4.21
2019-03-26T05:24:30.512Z,4.20
2019-03-26T05:25:30.552Z,4.31
2019-03-26T05:26:30.484Z,4.29
2019-03-26T05:27:30.473Z,4.24
2019-03-26T05:28:30.464Z,4.26
2019-03-26T05:29:30.463Z,4.26
2019-03-26T05:30:33.017Z,4.24
2019-03-26T05:31:31.425Z,4.26
2019-03-26T05:32:30.477Z,4.28
2019-03-26T05:33:30.397Z,4.28
2019-03-26T05:34:30.406Z,4.39
2019-03-26T05:35:30.376Z,4.36
2019-03-26T05:36:30.387Z,4.35
2019-03-26T05:37:30.348Z,4.44
2019-03-26T05:38:30.338Z,4.38
2019-03-26T05:39:30.348Z,4.53
2019-03-26T05:40:30.328Z,4.47
2019-03-26T05:41:30.441Z,4.47
2019-03-26T05:42:30.299Z,4.49
2019-03-26T05:43:30.293Z,4.44
2019-03-26T05:44:30.280Z,4.43
2019-03-26T05:45:30.370Z,4.47
2019-03-26T05:46:30.271Z,4.50
2019-03-26T05:47:31.332Z,4.46
2019-03-26T05:48:30.222Z,4.47
2019-03-26T05:49:30.233Z,4.51
2019-03-26T05:50:30.205Z,4.56
2019-03-26T05:51:30.314Z,4.59
2019-03-26T05:52:30.186Z,4.59
2019-03-26T05:53:30.204Z,4.61
2019-03-26T05:54:30.154Z,4.51
2019-03-26T05:55:30.238Z,4.51
2019-03-26T05:56:30.650Z,4.62
2019-03-26T05:57:30.175Z,4.59
2019-03-26T05:58:30.131Z,4.56
2019-03-26T05:59:30.107Z,4.64
2019-03-26T06:00:30.098Z,4.57
2019-03-26T06:01:30.197Z,4.69
2019-03-26T06:02:30.078Z,4.65
2019-03-26T06:03:30.090Z,4.62
2019-03-26T06:04:30.048Z,4.65
2019-03-26T06:05:30.129Z,4.67
2019-03-26T06:06:30.049Z,4.64
2019-03-26T06:07:31.459Z,4.65
2019-03-26T06:08:30.001Z,4.65
2019-03-26T06:09:30.091Z,4.62
2019-03-26T06:10:31.080Z,4.64
2019-03-26T06:11:29.982Z,4.69
2019-03-26T06:12:31.021Z,4.68
2019-03-26T06:13:29.942Z,4.69
2019-03-26T06:14:31.973Z,4.72
2019-03-26T06:15:30.002Z,4.74
2019-03-26T06:16:38.266Z,4.79
2019-03-26T06:17:30.895Z,4.83
2019-03-26T06:18:29.904Z,4.72
2019-03-26T06:19:29.886Z,4.80
2019-03-26T06:20:30.967Z,4.77
2019-03-26T06:21:29.875Z,4.84
2019-03-26T06:22:30.933Z,4.88
2019-03-26T06:23:29.836Z,4.87
2019-03-26T06:24:29.917Z,4.84
2019-03-26T06:25:29.818Z,4.86
2019-03-26T06:26:29.827Z,4.90
2019-03-26T06:27:29.808Z,4.96
2019-03-26T06:28:29.771Z,4.96
2019-03-26T06:29:29.851Z,4.90
2019-03-26T06:30:29.750Z,4.96
2019-03-26T06:31:29.751Z,4.96
2019-03-26T06:32:30.770Z,4.96
2019-03-26T06:33:29.711Z,4.97
2019-03-26T06:34:29.793Z,4.99
2019-03-26T06:35:29.692Z,4.97
2019-03-26T06:36:29.692Z,5.02
2019-03-26T06:37:29.672Z,4.99
2019-03-26T06:38:30.683Z,5.01
2019-03-26T06:39:29.653Z,5.05
2019-03-26T06:40:29.703Z,5.05
2019-03-26T06:41:29.714Z,5.06
2019-03-26T06:42:29.624Z,5.04
2019-03-26T06:43:29.704Z,5.08
2019-03-26T06:44:29.595Z,5.09
2019-03-26T06:45:29.636Z,5.22
2019-03-26T06:46:29.670Z,5.09
2019-03-26T06:47:29.560Z,5.24
2019-03-26T06:48:30.556Z,5.23
2019-03-26T06:49:29.537Z,5.26
2019-03-26T06:50:31.630Z,5.33
2019-03-26T06:51:29.527Z,5.26
2019-03-26T06:52:29.502Z,5.27
2019-03-26T06:53:29.580Z,5.37
2019-03-26T06:54:29.479Z,5.38
2019-03-26T06:55:29.519Z,5.30
2019-03-26T06:56:29.481Z,5.29
2019-03-26T06:57:35.498Z,5.35
2019-03-26T06:58:30.441Z,5.47
2019-03-26T06:59:36.964Z,5.40
2019-03-26T07:00:29.455Z,5.40
2019-03-26T07:01:30.492Z,5.49
2019-03-26T07:02:29.393Z,5.47
2019-03-26T07:03:31.413Z,5.52
2019-03-26T07:04:29.442Z,5.63
2019-03-26T07:05:29.394Z,5.63
2019-03-26T07:06:29.354Z,5.59
2019-03-26T07:07:31.664Z,5.55
2019-03-26T07:08:29.315Z,5.58
2019-03-26T07:09:29.368Z,5.58
2019-03-26T07:10:29.298Z,5.63
2019-03-26T07:11:29.356Z,5.67
2019-03-26T07:12:29.266Z,5.65
2019-03-26T07:13:29.257Z,5.51
2019-03-26T07:14:29.251Z,5.62
2019-03-26T07:15:29.279Z,5.70
2019-03-26T07:16:29.239Z,5.63
2019-03-26T07:17:30.243Z,5.69
2019-03-26T07:18:29.209Z,5.74
2019-03-26T07:19:29.249Z,5.77
2019-03-26T07:20:29.190Z,5.80
2019-03-26T07:21:29.212Z,5.85
2019-03-26T07:22:29.173Z,5.84
2019-03-26T07:23:30.251Z,5.84
2019-03-26T07:24:29.151Z,5.87
2019-03-26T07:25:29.152Z,5.81
2019-03-26T07:26:29.122Z,5.90
2019-03-26T07:27:29.196Z,5.93
2019-03-26T07:28:29.083Z,6.01
2019-03-26T07:29:29.094Z,6.02
2019-03-26T07:30:29.235Z,6.05
2019-03-26T07:31:29.086Z,6.06
2019-03-26T07:32:31.076Z,6.21
2019-03-26T07:33:29.039Z,6.25
2019-03-26T07:34:29.017Z,6.30
2019-03-26T07:35:31.091Z,6.33
2019-03-26T07:36:29.037Z,6.46
2019-03-26T07:37:29.107Z,6.48
2019-03-26T07:38:29.218Z,6.53
2019-03-26T07:39:29.182Z,6.45
2019-03-26T07:40:28.959Z,6.48
2019-03-26T07:41:29.053Z,6.46
2019-03-26T07:42:28.932Z,6.38
2019-03-26T07:43:30.000Z,6.48
2019-03-26T07:44:28.921Z,6.53
2019-03-26T07:45:28.912Z,6.54
2019-03-26T07:46:28.881Z,6.57
2019-03-26T07:47:29.003Z,6.54
2019-03-26T07:48:28.862Z,6.60
2019-03-26T07:49:28.903Z,6.58
2019-03-26T07:50:28.834Z,6.58
2019-03-26T07:51:28.926Z,6.71
2019-03-26T07:52:28.825Z,6.71
2019-03-26T07:53:28.854Z,7.07
2019-03-26T07:54:28.803Z,7.04
2019-03-26T07:55:28.797Z,6.97
2019-03-26T07:56:28.878Z,6.97
2019-03-26T07:57:28.786Z,6.93
2019-03-26T07:58:32.986Z,6.81
2019-03-26T07:59:28.758Z,6.76
2019-03-26T08:00:28.738Z,6.72
2019-03-26T08:01:28.709Z,6.68
2019-03-26T08:02:29.728Z,6.72
2019-03-26T08:03:28.772Z,6.60
2019-03-26T08:04:28.699Z,6.60
2019-03-26T08:05:30.209Z,6.58
2019-03-26T08:06:28.660Z,6.60
2019-03-26T08:07:28.744Z,6.73
2019-03-26T08:08:28.632Z,6.76
2019-03-26T08:09:31.631Z,6.68
2019-03-26T08:10:28.613Z,6.73
2019-03-26T08:11:28.675Z,6.60
2019-03-26T08:12:28.606Z,6.61
2019-03-26T08:13:28.656Z,6.53
2019-03-26T08:14:28.565Z,6.50
2019-03-26T08:15:30.609Z,6.51
2019-03-26T08:16:28.582Z,6.51
2019-03-26T08:17:28.653Z,6.53
2019-03-26T08:18:28.498Z,6.61
2019-03-26T08:19:30.576Z,6.58
2019-03-26T08:20:28.497Z,6.57
2019-03-26T08:21:28.614Z,6.55
2019-03-26T08:22:28.508Z,6.53
2019-03-26T08:23:30.549Z,6.53
2019-03-26T08:24:28.449Z,6.48
2019-03-26T08:25:34.969Z,6.60
2019-03-26T08:26:28.422Z,6.53
2019-03-26T08:27:28.431Z,6.45
2019-03-26T08:28:28.440Z,6.55
2019-03-26T08:29:28.390Z,6.40
2019-03-26T08:30:28.413Z,6.42
2019-03-26T08:31:28.382Z,6.46
2019-03-26T08:32:28.372Z,6.33
2019-03-26T08:33:28.373Z,6.35
2019-03-26T08:34:29.373Z,6.33
2019-03-26T08:35:28.431Z,6.32
2019-03-26T08:36:28.397Z,6.24
2019-03-26T08:37:28.305Z,6.27
2019-03-26T08:38:28.316Z,6.21
2019-03-26T08:39:29.305Z,6.13
2019-03-26T08:40:28.266Z,6.05
2019-03-26T08:41:28.316Z,6.05
2019-03-26T08:42:28.246Z,6.03
2019-03-26T08:43:28.257Z,5.93
2019-03-26T08:44:28.239Z,6.01
2019-03-26T08:45:28.288Z,6.02
2019-03-26T08:46:28.189Z,6.03
2019-03-26T08:47:28.228Z,6.05
2019-03-26T08:48:28.192Z,6.01
2019-03-26T08:49:30.951Z,6.06
2019-03-26T08:50:28.151Z,6.13
2019-03-26T08:51:28.211Z,6.10
2019-03-26T08:52:28.133Z,6.02
2019-03-26T08:53:30.231Z,6.11
2019-03-26T08:54:28.116Z,6.11
2019-03-26T08:55:28.182Z,6.08
2019-03-26T08:56:28.083Z,6.30
2019-03-26T08:57:28.103Z,6.33
2019-03-26T08:58:28.073Z,6.35
2019-03-26T08:59:28.054Z,6.38
2019-03-26T09:00:28.044Z,6.17
2019-03-26T09:01:28.076Z,6.27
2019-03-26T09:02:28.016Z,6.20
2019-03-26T09:03:28.076Z,6.08
2019-03-26T09:04:28.007Z,6.27
2019-03-26T09:05:28.057Z,6.33
2019-03-26T09:06:27.987Z,6.30
2019-03-26T09:07:27.987Z,6.35
2019-03-26T09:08:27.969Z,6.10
2019-03-26T09:09:29.059Z,6.10
2019-03-26T09:10:27.939Z,6.05
2019-03-26T09:11:27.960Z,5.93
2019-03-26T09:12:27.920Z,5.85
2019-03-26T09:13:27.948Z,5.96
2019-03-26T09:14:27.871Z,5.92
2019-03-26T09:15:27.881Z,5.95
2019-03-26T09:16:27.861Z,5.85
2019-03-26T09:17:27.863Z,5.99
2019-03-26T09:18:27.842Z,6.05
2019-03-26T09:19:27.903Z,6.14
2019-03-26T09:20:27.896Z,6.25
2019-03-26T09:21:28.855Z,6.33
2019-03-26T09:22:27.804Z,6.33
2019-03-26T09:23:27.886Z,6.51
2019-03-26T09:24:27.775Z,6.40
2019-03-26T09:25:27.826Z,6.48
2019-03-26T09:26:27.756Z,6.51
2019-03-26T09:27:27.806Z,6.69
2019-03-26T09:28:27.708Z,6.61
2019-03-26T09:29:27.789Z,6.65
2019-03-26T09:30:27.729Z,6.73
2019-03-26T09:31:27.699Z,6.71
2019-03-26T09:32:27.743Z,6.64
2019-03-26T09:33:27.701Z,6.76
2019-03-26T09:34:27.678Z,6.75
2019-03-26T09:35:27.750Z,6.83
2019-03-26T09:36:27.661Z,6.79
2019-03-26T09:37:28.612Z,6.93
2019-03-26T09:38:38.226Z,7.01
2019-03-26T09:39:28.602Z,7.01
2019-03-26T09:40:28.713Z,6.97
2019-03-26T09:41:27.578Z,7.16
2019-03-26T09:42:27.565Z,6.99
2019-03-26T09:43:27.635Z,7.04
2019-03-26T09:44:27.556Z,7.00
2019-03-26T09:45:29.625Z,7.04
2019-03-26T09:46:27.536Z,6.83
2019-03-26T09:47:27.516Z,6.83
2019-03-26T09:48:27.640Z,6.76
2019-03-26T09:49:27.477Z,6.68
2019-03-26T09:50:27.517Z,6.75
2019-03-26T09:51:27.470Z,6.72
2019-03-26T09:52:27.459Z,6.72
2019-03-26T09:53:27.469Z,6.64
2019-03-26T09:54:27.489Z,6.71
2019-03-26T09:55:27.421Z,6.58
2019-03-26T09:56:29.373Z,6.75
2019-03-26T09:57:27.400Z,6.58
2019-03-26T09:58:27.401Z,6.60
2019-03-26T09:59:29.461Z,6.51
2019-03-26T10:00:27.395Z,6.53
2019-03-26T10:01:27.463Z,6.58
2019-03-26T10:02:27.343Z,6.50
2019-03-26T10:03:27.354Z,6.46
2019-03-26T10:04:27.324Z,6.45
2019-03-26T10:05:27.335Z,6.46
2019-03-26T10:06:27.284Z,6.33
2019-03-26T10:07:28.290Z,6.21
2019-03-26T10:08:27.301Z,6.08
2019-03-26T10:09:27.296Z,6.11
2019-03-26T10:10:27.276Z,6.17
2019-03-26T10:11:27.347Z,6.20
2019-03-26T10:12:27.227Z,6.27
2019-03-26T10:13:27.328Z,6.33
2019-03-26T10:14:27.214Z,6.28
2019-03-26T10:15:27.321Z,6.36
2019-03-26T10:16:27.190Z,6.33
2019-03-26T10:17:27.240Z,6.28
2019-03-26T10:18:27.159Z,6.25
2019-03-26T10:19:27.172Z,6.28
2019-03-26T10:20:27.151Z,6.17
2019-03-26T10:21:27.233Z,6.11
2019-03-26T10:22:27.122Z,6.10
2019-03-26T10:23:27.172Z,6.11
2019-03-26T10:24:27.127Z,6.01
2019-03-26T10:25:27.090Z,5.99
2019-03-26T10:26:27.277Z,5.81
2019-03-26T10:27:27.074Z,5.83
2019-03-26T10:28:35.096Z,5.83
2019-03-26T10:29:30.427Z,5.85
2019-03-26T10:30:27.036Z,5.83
2019-03-26T10:31:27.017Z,5.85
2019-03-26T10:32:27.076Z,5.83
2019-03-26T10:33:26.997Z,5.84
2019-03-26T10:34:27.048Z,5.96
2019-03-26T10:35:26.967Z,6.02
2019-03-26T10:36:26.958Z,5.95
2019-03-26T10:37:29.058Z,6.02
2019-03-26T10:38:26.949Z,6.05
2019-03-26T10:39:27.010Z,6.10
2019-03-26T10:40:26.920Z,6.14
2019-03-26T10:41:26.911Z,6.06
2019-03-26T10:42:26.900Z,6.05
2019-03-26T10:43:26.921Z,5.96
2019-03-26T10:44:26.892Z,5.90
2019-03-26T10:45:26.952Z,5.92
2019-03-26T10:46:26.843Z,5.95
2019-03-26T10:47:26.893Z,6.01
2019-03-26T10:48:26.824Z,6.01
2019-03-26T10:49:27.894Z,6.11
2019-03-26T10:50:26.806Z,6.36
2019-03-26T10:51:26.864Z,6.48
2019-03-26T10:52:30.750Z,6.51
2019-03-26T10:53:27.766Z,6.58
2019-03-26T10:54:26.818Z,6.54
2019-03-26T10:55:26.757Z,6.51
2019-03-26T10:56:26.747Z,6.51
2019-03-26T10:57:26.778Z,6.58
2019-03-26T10:58:26.719Z,6.63
2019-03-26T10:59:26.729Z,6.68
2019-03-26T11:00:26.702Z,6.58
2019-03-26T11:01:26.752Z,6.69
2019-03-26T11:02:26.680Z,6.73
2019-03-26T11:03:26.690Z,6.71
2019-03-26T11:04:26.671Z,6.76
2019-03-26T11:05:27.651Z,6.75
2019-03-26T11:06:26.624Z,6.69
2019-03-26T11:07:26.612Z,6.71
2019-03-26T11:08:26.585Z,6.71
2019-03-26T11:09:27.318Z,6.64
2019-03-26T11:10:26.574Z,6.81
2019-03-26T11:11:26.624Z,6.81
2019-03-26T11:12:26.555Z,6.75
2019-03-26T11:13:26.544Z,6.81
2019-03-26T11:14:26.545Z,6.86
2019-03-26T11:15:28.545Z,6.93
2019-03-26T11:16:26.516Z,7.01
2019-03-26T11:17:26.537Z,6.96
2019-03-26T11:18:26.498Z,6.91
2019-03-26T11:19:26.527Z,6.97
2019-03-26T11:20:26.478Z,6.96
2019-03-26T11:21:26.450Z,7.11
2019-03-26T11:22:26.448Z,7.26
2019-03-26T11:23:32.992Z,7.27
2019-03-26T11:24:26.429Z,7.30
2019-03-26T11:25:27.501Z,7.29
2019-03-26T11:26:26.403Z,7.45
2019-03-26T11:27:26.391Z,7.45
2019-03-26T11:28:26.373Z,7.51
2019-03-26T11:29:26.382Z,7.55
2019-03-26T11:30:26.426Z,7.57
2019-03-26T11:31:26.333Z,7.57
2019-03-26T11:32:26.353Z,7.48
2019-03-26T11:33:26.324Z,7.50
2019-03-26T11:34:26.334Z,7.52
2019-03-26T11:35:26.307Z,7.37
2019-03-26T11:36:26.335Z,7.16
2019-03-26T11:37:26.276Z,7.21
2019-03-26T11:38:26.366Z,7.30
2019-03-26T11:39:32.613Z,7.26
2019-03-26T11:40:27.239Z,7.39
2019-03-26T11:41:26.227Z,7.29
2019-03-26T11:42:27.258Z,7.39
2019-03-26T11:43:26.218Z,7.36
2019-03-26T11:44:26.309Z,7.26
2019-03-26T11:45:26.182Z,7.21
2019-03-26T11:46:27.324Z,7.29
2019-03-26T11:47:26.160Z,7.48
2019-03-26T11:48:26.240Z,7.42
2019-03-26T11:49:26.161Z,7.47
2019-03-26T11:50:27.204Z,7.47
2019-03-26T11:51:27.172Z,7.44
2019-03-26T11:52:26.112Z,7.57
2019-03-26T11:53:26.184Z,7.62
2019-03-26T11:54:26.093Z,7.55
2019-03-26T11:55:26.174Z,7.60
2019-03-26T11:56:26.076Z,7.37
2019-03-26T11:57:27.084Z,7.37
2019-03-26T11:58:30.734Z,7.45
2019-03-26T11:59:28.135Z,7.58
2019-03-26T12:00:26.026Z,7.73
2019-03-26T12:01:26.030Z,7.92
2019-03-26T12:02:26.122Z,8.03
2019-03-26T12:03:27.099Z,7.92
2019-03-26T12:04:25.978Z,7.96
2019-03-26T12:05:27.990Z,7.99
2019-03-26T12:06:25.948Z,7.91
2019-03-26T12:07:26.041Z,7.94
2019-03-26T12:08:25.940Z,7.89
2019-03-26T12:09:25.970Z,7.92
2019-03-26T12:10:25.923Z,7.94
2019-03-26T12:11:26.925Z,7.86
2019-03-26T12:12:25.896Z,7.81
2019-03-26T12:13:25.874Z,7.69
2019-03-26T12:14:25.883Z,7.52
2019-03-26T12:15:26.954Z,7.39
2019-03-26T12:16:25.845Z,7.29
2019-03-26T12:17:25.917Z,7.44
2019-03-26T12:18:25.816Z,7.54
2019-03-26T12:19:25.806Z,7.57
2019-03-26T12:20:25.865Z,7.60
2019-03-26T12:21:25.775Z,7.81
2019-03-26T12:22:26.876Z,7.88
2019-03-26T12:23:25.758Z,7.88
2019-03-26T12:24:25.750Z,7.91
2019-03-26T12:25:25.756Z,8.09
2019-03-26T12:26:25.828Z,8.09
2019-03-26T12:27:25.718Z,8.07
2019-03-26T12:28:25.772Z,8.07
2019-03-26T12:29:25.700Z,7.88
2019-03-26T12:30:25.700Z,7.88
2019-03-26T12:31:25.760Z,7.94
2019-03-26T12:32:25.650Z,8.06
2019-03-26T12:33:25.711Z,8.07
2019-03-26T12:34:25.651Z,8.17
2019-03-26T12:35:25.633Z,8.18
2019-03-26T12:36:39.158Z,8.20
2019-03-26T12:37:26.603Z,8.04
2019-03-26T12:38:25.652Z,7.94
2019-03-26T12:39:25.574Z,7.88
2019-03-26T12:40:25.620Z,7.91
2019-03-26T12:41:25.545Z,7.86
2019-03-26T12:42:25.618Z,7.89
2019-03-26T12:43:25.536Z,7.86
2019-03-26T12:44:25.557Z,7.89
2019-03-26T12:45:25.593Z,7.95
2019-03-26T12:46:27.541Z,7.94
2019-03-26T12:47:25.487Z,8.07
2019-03-26T12:48:25.510Z,7.96
2019-03-26T12:49:25.479Z,8.02
2019-03-26T12:50:25.516Z,7.96
2019-03-26T12:51:25.625Z,8.00
2019-03-26T12:52:25.430Z,7.96
2019-03-26T12:53:25.461Z,7.84
2019-03-26T12:54:25.412Z,7.88
2019-03-26T12:55:25.431Z,7.70
2019-03-26T12:56:25.382Z,7.67
2019-03-26T12:57:25.373Z,7.71
2019-03-26T12:58:31.561Z,7.84
2019-03-26T12:59:26.764Z,7.79
2019-03-26T13:00:26.507Z,7.81
2019-03-26T13:01:25.344Z,7.77
2019-03-26T13:02:25.375Z,7.88
2019-03-26T13:03:25.315Z,8.03
2019-03-26T13:04:25.416Z,8.07
2019-03-26T13:05:25.307Z,8.09
2019-03-26T13:06:25.458Z,8.10
2019-03-26T13:07:25.279Z,8.20
2019-03-26T13:08:25.249Z,8.17
2019-03-26T13:09:25.238Z,8.20
2019-03-26T13:10:25.358Z,8.09
2019-03-26T13:11:25.220Z,8.18
2019-03-26T13:12:26.279Z,8.32
2019-03-26T13:13:25.237Z,8.47
2019-03-26T13:14:25.290Z,8.46
2019-03-26T13:15:25.190Z,8.50
2019-03-26T13:16:25.331Z,8.42
2019-03-26T13:17:25.161Z,8.34
2019-03-26T13:18:25.263Z,8.39